Time;durP1;ratioP1;P1;durP2;ratioP2;P2;SDS_P1;SDS_P2;PMS_P1;PMS_P2;Temp;Humidity;BMP_temperature;BMP_pressure;BME280_temperature;BME280_humidity;BME280_pressure;Samples;Min_cycle;Max_cycle;Signal;HPM_P1;HPM_P2
2022/08/19 00:02:08;;;;;;;8.55;4.03;;;31.50;99.90;;;;;;6202303;23;20169;-96
2022/08/19 00:04:40;;;;;;;4.28;3.50;;;31.50;99.90;;;;;;6190593;23;20177;-96
2022/08/19 00:07:11;;;;;;;10.45;4.05;;;31.40;99.90;;;;;;6195879;23;20177;-95
2022/08/19 00:09:43;;;;;;;6.32;3.50;;;31.30;99.90;;;;;;6195694;23;20173;-96
2022/08/19 00:12:15;;;;;;;47.80;6.40;;;30.90;99.90;;;;;;6192385;23;20181;-96
2022/08/19 00:14:46;;;;;;;29.38;4.72;;;30.80;99.90;;;;;;6192790;23;20177;-96
2022/08/19 00:17:20;;;;;;;176.95;13.20;;;30.80;99.90;;;;;;6197908;23;20233;-95
2022/08/19 00:19:52;;;;;;;27.60;5.03;;;30.80;99.90;;;;;;6192502;23;20176;-95
2022/08/19 00:22:23;;;;;;;42.35;5.28;;;30.80;99.90;;;;;;6192472;23;20184;-95
2022/08/19 00:25:00;;;;;;;9.60;3.10;;;30.70;99.90;;;;;;6191651;23;20183;-94
2022/08/19 00:27:32;;;;;;;6.05;3.28;;;30.70;99.90;;;;;;6191135;23;20271;-94
2022/08/19 00:30:04;;;;;;;5.47;3.17;;;30.60;99.90;;;;;;6191134;23;20239;-93
2022/08/19 00:32:40;;;;;;;5.13;3.35;;;30.50;99.90;;;;;;6190463;23;20177;-94
2022/08/19 00:35:13;;;;;;;14.73;4.07;;;30.40;99.90;;;;;;6194379;23;20184;-94
2022/08/19 00:37:44;;;;;;;26.77;4.35;;;30.50;99.90;;;;;;6190539;23;20204;-95
2022/08/19 00:40:19;;;;;;;10.00;3.30;;;30.50;99.90;;;;;;6194573;23;20220;-94
2022/08/19 00:42:53;;;;;;;5.10;3.17;;;30.50;99.90;;;;;;6193376;23;20211;-94
2022/08/19 00:45:27;;;;;;;4.55;3.63;;;30.60;99.90;;;;;;6193509;23;20162;-95
2022/08/19 00:48:05;;;;;;;9.23;4.15;;;30.70;99.90;;;;;;6192662;23;20187;-94
2022/08/19 00:50:45;;;;;;;67.38;5.97;;;30.70;99.90;;;;;;6198475;23;20411;-95
2022/08/19 00:53:24;;;;;;;23.15;4.32;;;30.70;99.90;;;;;;6193278;23;20215;-94
2022/08/19 00:55:58;;;;;;;31.30;4.68;;;30.70;99.90;;;;;;6193520;23;20283;-95
2022/08/19 00:58:32;;;;;;;7.25;3.55;;;30.50;99.90;;;;;;6193155;23;20207;-95
2022/08/19 01:01:07;;;;;;;5.53;3.53;;;30.50;99.90;;;;;;6202166;23;20169;-95
2022/08/19 01:03:43;;;;;;;4.65;3.50;;;30.50;99.90;;;;;;6191928;23;20176;-96
2022/08/19 01:06:27;;;;;;;100.90;6.43;;;30.50;99.90;;;;;;6190837;23;20188;-95
2022/08/19 01:08:59;;;;;;;5.65;3.78;;;30.50;99.90;;;;;;6194483;23;20267;-96
2022/08/19 01:11:32;;;;;;;227.35;11.75;;;30.70;99.90;;;;;;6196877;23;20177;-96
2022/08/19 01:14:04;;;;;;;20.67;4.60;;;30.70;99.90;;;;;;6191396;23;20177;-95
2022/08/19 01:16:37;;;;;;;18.90;4.68;;;30.90;99.90;;;;;;6193506;23;20169;-95
2022/08/19 01:19:17;;;;;;;5.65;3.25;;;30.90;99.90;;;;;;6191280;23;20209;-96
2022/08/19 01:21:53;;;;;;;13.10;3.80;;;30.80;99.90;;;;;;6192680;23;20182;-95
2022/08/19 01:24:27;;;;;;;8.75;3.60;;;30.70;99.90;;;;;;6190622;23;20200;-95
2022/08/19 01:26:59;;;;;;;19.65;4.35;;;30.40;99.90;;;;;;6196182;23;20172;-96
2022/08/19 01:29:31;;;;;;;8.45;3.47;;;30.40;99.90;;;;;;6195079;23;20193;-95
2022/08/19 01:32:06;;;;;;;12.70;3.67;;;30.40;99.90;;;;;;6189823;23;20178;-96
2022/08/19 01:34:58;;;;;;;8.20;4.03;;;30.40;99.90;;;;;;6190050;23;20672;-95
2022/08/19 01:37:30;;;;;;;9.55;4.53;;;30.20;99.90;;;;;;6191093;23;20184;-95
2022/08/19 01:40:24;;;;;;;101.30;9.23;;;30.10;99.90;;;;;;6196599;23;20201;-95
2022/08/19 01:43:09;;;;;;;29.08;5.05;;;30.00;99.90;;;;;;6194595;23;20173;-95
2022/08/19 01:45:41;;;;;;;6.95;3.47;;;30.00;99.90;;;;;;6192640;23;20224;-96
2022/08/19 01:48:13;;;;;;;9.98;3.67;;;29.90;99.90;;;;;;6190418;23;20628;-95
2022/08/19 01:50:47;;;;;;;7.80;3.40;;;29.70;99.90;;;;;;6192165;23;20817;-96
2022/08/19 01:53:18;;;;;;;9.10;3.88;;;29.60;99.90;;;;;;6189216;23;20227;-95
2022/08/19 01:55:55;;;;;;;9.55;3.95;;;29.50;99.90;;;;;;6191236;23;20230;-95
2022/08/19 01:58:40;;;;;;;9.40;3.83;;;29.50;99.90;;;;;;6190549;23;20200;-95
2022/08/19 02:01:11;;;;;;;8.02;3.92;;;29.40;99.90;;;;;;6189992;23;20176;-96
2022/08/19 02:03:43;;;;;;;8.40;4.00;;;29.30;99.90;;;;;;6190372;23;20252;-95
2022/08/19 02:06:16;;;;;;;11.20;3.45;;;29.30;99.90;;;;;;6191236;23;20177;-96
2022/08/19 02:08:56;;;;;;;6.13;3.40;;;29.30;99.90;;;;;;6190875;23;20179;-96
2022/08/19 02:11:33;;;;;;;11.90;4.15;;;29.40;99.90;;;;;;6189696;23;20177;-96
2022/08/19 02:14:06;;;;;;;9.10;4.13;;;29.30;99.90;;;;;;6192266;23;20177;-96
2022/08/19 02:25:39;;;;;;;6.25;4.00;;;28.90;99.90;;;;;;6203897;23;20181;-96
2022/08/19 02:45:15;;;;;;;11.90;4.43;;;28.10;99.90;;;;;;6211734;23;20199;-91
2022/08/19 02:47:56;;;;;;;9.03;3.63;;;27.90;99.90;;;;;;6210369;23;20169;-94
2022/08/19 02:50:42;;;;;;;8.17;3.33;;;27.80;99.90;;;;;;6199859;23;20184;-95
2022/08/19 02:56:17;;;;;;;4.97;3.80;;;27.70;99.90;;;;;;6196393;23;20487;-95
2022/08/19 02:58:49;;;;;;;4.90;3.70;;;27.60;99.90;;;;;;6163578;23;20456;-95
2022/08/19 03:01:28;;;;;;;6.13;3.67;;;27.60;99.90;;;;;;6188513;23;20173;-95
2022/08/19 03:04:03;;;;;;;7.17;3.93;;;27.60;99.90;;;;;;6201140;23;20192;-96
2022/08/19 03:06:52;;;;;;;6.80;3.87;;;27.50;99.90;;;;;;6202406;23;20177;-96
2022/08/19 03:09:30;;;;;;;7.30;3.70;;;27.50;99.90;;;;;;6195808;23;20236;-96
2022/08/19 03:12:02;;;;;;;5.00;3.87;;;27.50;99.90;;;;;;6200198;23;20219;-96
2022/08/19 03:14:41;;;;;;;5.70;3.40;;;27.40;99.90;;;;;;6204803;23;20177;-96
2022/08/19 03:17:23;;;;;;;9.47;3.90;;;27.40;99.90;;;;;;6202766;23;20178;-96
2022/08/19 03:19:55;;;;;;;8.70;3.80;;;27.30;99.90;;;;;;6203913;23;20197;-96
2022/08/19 03:22:27;;;;;;;5.63;3.40;;;27.30;99.90;;;;;;6204494;23;20192;-96
2022/08/19 03:24:59;;;;;;;6.50;3.70;;;27.20;99.90;;;;;;6189719;23;20172;-96
2022/08/19 03:27:30;;;;;;;4.60;3.60;;;27.10;99.90;;;;;;6189637;23;20203;-96
2022/08/19 03:30:14;;;;;;;7.57;3.93;;;27.00;99.90;;;;;;6202232;23;20176;-96
2022/08/19 03:32:55;;;;;;;6.87;3.70;;;27.00;99.90;;;;;;6195674;23;20176;-96
2022/08/19 03:35:30;;;;;;;9.13;4.10;;;26.90;99.90;;;;;;6203000;23;20177;-96
2022/08/19 03:38:02;;;;;;;7.10;3.90;;;26.90;99.90;;;;;;6208619;23;20204;-96
2022/08/19 03:40:35;;;;;;;6.87;3.87;;;26.80;99.90;;;;;;6210503;23;20260;-96
2022/08/19 03:52:10;;;;;;;9.37;3.90;;;26.50;99.90;;;;;;6206907;23;20181;-94
2022/08/19 03:54:42;;;;;;;4.20;3.80;;;26.40;99.90;;;;;;6209117;23;20258;-94
2022/08/19 03:57:14;;;;;;;4.80;4.23;;;26.40;99.90;;;;;;6199722;23;20220;-93
2022/08/19 03:59:46;;;;;;;11.40;4.67;;;26.40;99.90;;;;;;6199586;23;20273;-94
2022/08/19 04:02:22;;;;;;;5.27;4.40;;;26.30;99.90;;;;;;6176502;23;20212;-93
2022/08/19 04:04:57;;;;;;;7.53;4.40;;;26.30;99.90;;;;;;6198494;23;20182;-95
2022/08/19 04:07:28;;;;;;;8.23;4.33;;;26.30;99.90;;;;;;6204566;23;20588;-94
2022/08/19 04:10:00;;;;;;;6.83;4.17;;;26.20;99.90;;;;;;6205235;23;20200;-94
2022/08/19 04:12:32;;;;;;;8.00;4.50;;;26.20;99.90;;;;;;6191488;23;20178;-96
2022/08/19 04:21:05;;;;;;;7.17;3.93;;;26.20;99.90;;;;;;6200966;23;20201;-96
2022/08/19 04:23:41;;;;;;;6.57;4.03;;;26.30;99.90;;;;;;6198536;23;20208;-95
2022/08/19 04:26:18;;;;;;;8.23;4.07;;;26.30;99.90;;;;;;6202386;23;20172;-96
2022/08/19 04:28:51;;;;;;;6.67;4.80;;;26.30;99.90;;;;;;6191858;23;20180;-94
2022/08/19 04:31:25;;;;;;;8.53;4.47;;;26.20;99.90;;;;;;6192497;23;20227;-94
2022/08/19 04:34:07;;;;;;;9.20;4.87;;;26.30;99.90;;;;;;6194223;23;20177;-95
2022/08/19 04:36:44;;;;;;;8.90;4.37;;;26.20;99.90;;;;;;6193652;23;20164;-94
2022/08/19 04:39:17;;;;;;;7.30;4.70;;;26.20;99.90;;;;;;6192735;23;20504;-94
2022/08/19 04:44:39;;;;;;;8.63;4.07;;;26.20;99.90;;;;;;6192529;23;20189;-94
2022/08/19 04:47:15;;;;;;;6.17;4.60;;;26.20;99.90;;;;;;6190985;23;20196;-94
2022/08/19 04:50:09;;;;;;;6.47;4.10;;;26.20;99.90;;;;;;6190902;23;20539;-94
2022/08/19 04:52:43;;;;;;;8.53;4.20;;;26.20;99.90;;;;;;6189841;23;20181;-94
2022/08/19 04:55:14;;;;;;;11.73;4.43;;;26.20;99.90;;;;;;6193139;23;20188;-94
2022/08/19 04:57:46;;;;;;;8.70;4.40;;;26.20;99.90;;;;;;6201997;23;20177;-95
2022/08/19 05:00:17;;;;;;;5.80;3.83;;;26.20;99.90;;;;;;6212330;23;20209;-94
2022/08/19 05:02:49;;;;;;;4.50;3.43;;;26.10;99.90;;;;;;6211520;23;20161;-95
2022/08/19 05:08:07;;;;;;;9.23;4.00;;;26.20;99.90;;;;;;6183680;23;20296;-94
2022/08/19 05:10:57;;;;;;;8.43;4.30;;;26.10;99.90;;;;;;6181733;23;20177;-93
2022/08/19 05:13:42;;;;;;;9.57;4.60;;;26.20;99.90;;;;;;6181579;23;20203;-94
2022/08/19 05:16:17;;;;;;;8.87;4.10;;;26.20;99.90;;;;;;6183169;23;20242;-95
2022/08/19 05:24:28;;;;;;;8.53;4.13;;;26.10;99.90;;;;;;6162099;23;20520;-95
2022/08/19 05:26:59;;;;;;;6.60;4.60;;;26.10;99.90;;;;;;6161473;23;20204;-95
2022/08/19 05:29:31;;;;;;;8.80;4.70;;;26.10;99.90;;;;;;6161543;23;20178;-95
2022/08/19 05:32:08;;;;;;;5.10;4.00;;;26.10;99.90;;;;;;6160908;23;20177;-95
2022/08/19 05:34:40;;;;;;;11.20;4.30;;;26.10;99.90;;;;;;6161384;23;20265;-95
2022/08/19 05:37:12;;;;;;;6.87;4.53;;;26.00;99.90;;;;;;6183281;23;20217;-94
2022/08/19 05:39:46;;;;;;;8.73;3.93;;;26.00;99.90;;;;;;6190511;23;20173;-94
2022/08/19 05:42:22;;;;;;;4.83;4.07;;;25.90;99.90;;;;;;6189349;23;20197;-95
2022/08/19 05:44:55;;;;;;;7.13;4.80;;;25.90;99.90;;;;;;6191524;23;20197;-94
2022/08/19 05:47:27;;;;;;;7.40;4.50;;;25.90;99.90;;;;;;6190653;23;20165;-95
2022/08/19 05:50:01;;;;;;;6.97;4.90;;;25.90;99.90;;;;;;6189950;23;20176;-94
2022/08/19 05:52:42;;;;;;;10.73;4.90;;;25.80;99.90;;;;;;6193925;23;20288;-94
2022/08/19 05:55:22;;;;;;;6.70;4.87;;;25.80;99.90;;;;;;6194767;23;20177;-93
2022/08/19 05:57:53;;;;;;;6.87;5.17;;;25.80;99.90;;;;;;6192943;23;20177;-94
2022/08/19 06:00:24;;;;;;;7.57;4.80;;;25.70;99.90;;;;;;6192609;23;20204;-95
2022/08/19 06:02:56;;;;;;;8.40;5.03;;;25.70;99.90;;;;;;6189057;23;20179;-95
2022/08/19 06:05:27;;;;;;;6.97;4.70;;;25.70;99.90;;;;;;6192279;23;20177;-94
2022/08/19 06:08:02;;;;;;;9.17;4.80;;;25.70;99.90;;;;;;6206163;23;20212;-95
2022/08/19 06:10:40;;;;;;;9.70;4.40;;;25.70;99.90;;;;;;6194477;23;20180;-94
2022/08/19 06:13:14;;;;;;;5.60;4.40;;;25.60;99.90;;;;;;6198825;23;20162;-94
2022/08/19 06:15:46;;;;;;;12.03;5.10;;;25.50;99.90;;;;;;6189626;23;20177;-94
2022/08/19 06:18:18;;;;;;;6.90;4.80;;;25.50;99.90;;;;;;6190979;23;20177;-96
2022/08/19 06:20:49;;;;;;;9.13;4.77;;;25.50;99.90;;;;;;6192501;23;20274;-96
2022/08/19 06:23:25;;;;;;;7.20;4.50;;;25.40;99.90;;;;;;6189371;23;20641;-96
2022/08/19 06:25:59;;;;;;;6.43;4.50;;;25.40;99.90;;;;;;6189566;23;20244;-96
2022/08/19 06:28:30;;;;;;;8.27;4.70;;;25.40;99.90;;;;;;6189895;23;20181;-96
2022/08/19 06:31:07;;;;;;;6.00;4.50;;;25.40;99.90;;;;;;6189636;23;20510;-96
2022/08/19 06:33:39;;;;;;;6.70;4.17;;;25.30;99.90;;;;;;6190123;23;20180;-95
2022/08/19 06:36:17;;;;;;;8.33;4.40;;;25.30;99.90;;;;;;6190550;23;20212;-96
2022/08/19 06:38:49;;;;;;;11.23;4.57;;;25.30;99.90;;;;;;6189527;23;20263;-96
2022/08/19 06:41:22;;;;;;;9.97;4.47;;;25.30;99.90;;;;;;6188784;23;20255;-96
2022/08/19 06:43:54;;;;;;;14.63;4.77;;;25.30;99.90;;;;;;6190114;23;20185;-96
2022/08/19 06:46:26;;;;;;;9.83;4.93;;;25.30;99.90;;;;;;6189578;23;20193;-96
2022/08/19 06:48:58;;;;;;;10.07;4.33;;;25.20;99.90;;;;;;6191273;23;20620;-96
2022/08/19 06:51:32;;;;;;;8.57;4.50;;;25.20;99.90;;;;;;6188505;23;20181;-96
2022/08/19 06:54:03;;;;;;;8.67;4.13;;;25.20;99.90;;;;;;6189766;23;20173;-96
2022/08/19 06:56:52;;;;;;;5.40;4.57;;;25.20;99.90;;;;;;6190022;23;20222;-94
2022/08/19 06:59:26;;;;;;;5.03;4.10;;;25.20;99.90;;;;;;6190905;23;20165;-93
2022/08/19 07:02:00;;;;;;;7.17;4.30;;;25.20;99.90;;;;;;6189111;23;20208;-95
2022/08/19 07:04:38;;;;;;;5.27;3.97;;;25.20;99.90;;;;;;6198588;23;20180;-95
2022/08/19 07:07:13;;;;;;;7.63;4.40;;;25.20;99.90;;;;;;6197372;23;20243;-95
2022/08/19 07:09:52;;;;;;;7.23;4.50;;;25.10;99.90;;;;;;6189117;23;20183;-95
2022/08/19 07:12:34;;;;;;;6.70;4.10;;;25.20;99.90;;;;;;6198626;23;20181;-95
2022/08/19 07:15:09;;;;;;;8.83;4.47;;;25.10;99.90;;;;;;6204859;23;20177;-95
2022/08/19 07:17:43;;;;;;;9.90;4.57;;;25.00;99.90;;;;;;6189897;23;20236;-95
2022/08/19 07:20:17;;;;;;;5.40;4.17;;;25.10;99.90;;;;;;6190339;23;20187;-96
2022/08/19 07:22:49;;;;;;;10.80;4.63;;;25.10;99.90;;;;;;6189414;23;20205;-95
2022/08/19 07:25:20;;;;;;;5.70;4.30;;;25.00;99.90;;;;;;6191561;23;20619;-95
2022/08/19 07:28:09;;;;;;;7.10;4.10;;;25.00;99.90;;;;;;6207175;23;20165;-95
2022/08/19 07:33:32;;;;;;;6.57;4.43;;;24.90;99.90;;;;;;6181133;23;20180;-96
2022/08/19 07:36:05;;;;;;;9.20;4.43;;;24.90;99.90;;;;;;6181862;23;20182;-94
2022/08/19 07:38:37;;;;;;;11.47;4.50;;;24.90;99.90;;;;;;6166187;23;20197;-96
2022/08/19 07:41:08;;;;;;;9.87;4.33;;;24.90;99.90;;;;;;6160314;23;20198;-95
2022/08/19 07:43:56;;;;;;;8.57;4.23;;;24.90;99.90;;;;;;6162173;23;20174;-96
2022/08/19 07:46:28;;;;;;;7.07;4.80;;;24.90;99.90;;;;;;6130267;23;20236;-95
2022/08/19 07:49:00;;;;;;;4.77;4.07;;;24.90;99.90;;;;;;6130487;23;20178;-96
2022/08/19 07:51:31;;;;;;;5.70;4.13;;;24.80;99.90;;;;;;6128788;23;20184;-95
2022/08/19 07:54:06;;;;;;;8.50;4.20;;;24.80;99.90;;;;;;6130052;23;20209;-95
2022/08/19 07:56:39;;;;;;;7.83;3.90;;;24.80;99.90;;;;;;6129850;23;20179;-96
2022/08/19 07:59:13;;;;;;;7.27;4.37;;;24.80;99.90;;;;;;6129897;23;20217;-95
2022/08/19 08:01:43;;;;;;;7.37;4.30;;;24.80;99.90;;;;;;6128887;23;20254;-94
2022/08/19 08:09:50;;;;;;;6.90;4.83;;;24.80;99.90;;;;;;6130532;23;20241;-95
2022/08/19 08:12:33;;;;;;;4.50;3.93;;;24.70;99.90;;;;;;6130535;23;20182;-95
2022/08/19 08:15:12;;;;;;;4.77;4.27;;;24.70;99.90;;;;;;6131899;23;20178;-95
2022/08/19 08:17:46;;;;;;;8.83;4.13;;;24.70;99.90;;;;;;6130236;23;20234;-95
2022/08/19 08:20:21;;;;;;;5.30;4.40;;;24.80;99.90;;;;;;6129658;23;20204;-94
2022/08/19 08:25:41;;;;;;;6.47;3.93;;;24.80;99.90;;;;;;6130060;23;20229;-95
2022/08/19 08:28:12;;;;;;;5.03;4.03;;;24.80;99.90;;;;;;6131511;23;20178;-94
2022/08/19 08:30:49;;;;;;;7.67;4.37;;;24.80;99.90;;;;;;6133339;23;20225;-94
2022/08/19 08:33:23;;;;;;;5.60;4.10;;;24.70;99.90;;;;;;6131219;23;20190;-94
2022/08/19 08:36:04;;;;;;;7.23;4.13;;;24.70;99.90;;;;;;6135280;23;20254;-94
2022/08/19 08:38:36;;;;;;;4.80;3.97;;;24.70;99.90;;;;;;6132039;23;20174;-95
2022/08/19 08:41:20;;;;;;;8.73;4.60;;;24.70;99.90;;;;;;6131943;23;20229;-93
2022/08/19 08:43:55;;;;;;;4.93;4.40;;;24.70;99.90;;;;;;6131307;23;20178;-94
2022/08/19 08:46:37;;;;;;;6.53;4.20;;;24.80;99.90;;;;;;6132767;23;20178;-94
2022/08/19 08:49:22;;;;;;;6.33;4.43;;;24.70;99.90;;;;;;6131281;23;20182;-94
2022/08/19 08:51:57;;;;;;;5.20;4.40;;;24.80;99.90;;;;;;6130647;23;20182;-95
2022/08/19 08:54:34;;;;;;;5.93;4.30;;;24.70;99.90;;;;;;6131342;23;20193;-95
2022/08/19 08:57:12;;;;;;;10.13;4.60;;;24.70;99.90;;;;;;6130883;23;20628;-94
2022/08/19 08:59:46;;;;;;;5.33;4.30;;;24.60;99.90;;;;;;6129575;23;20197;-95
2022/08/19 09:02:21;;;;;;;9.07;5.03;;;24.60;99.90;;;;;;6129089;23;20668;-95
2022/08/19 09:04:53;;;;;;;6.83;5.00;;;24.60;99.90;;;;;;6131401;23;20241;-95
2022/08/19 09:07:42;;;;;;;5.50;5.00;;;24.50;99.90;;;;;;6131028;23;20213;-94
2022/08/19 09:10:23;;;;;;;6.87;5.17;;;24.60;99.90;;;;;;6130403;23;20175;-94
2022/08/19 09:13:06;;;;;;;4.80;4.40;;;24.50;99.90;;;;;;6130341;23;20185;-94
2022/08/19 09:15:44;;;;;;;6.10;5.03;;;24.50;99.90;;;;;;6131175;23;20230;-94
2022/08/19 09:18:18;;;;;;;8.20;5.20;;;24.40;99.90;;;;;;6131182;23;20174;-94
2022/08/19 09:20:50;;;;;;;6.50;4.93;;;24.40;99.90;;;;;;6131200;23;20181;-95
2022/08/19 09:23:23;;;;;;;12.70;5.00;;;24.40;99.90;;;;;;6130595;23;20237;-94
2022/08/19 09:25:56;;;;;;;7.33;5.27;;;24.40;99.90;;;;;;6131292;23;20178;-94
2022/08/19 09:28:28;;;;;;;6.17;4.87;;;24.30;99.90;;;;;;6130991;23;20625;-95
2022/08/19 09:31:01;;;;;;;8.20;5.07;;;24.20;99.90;;;;;;6131851;23;20190;-94
2022/08/19 09:33:34;;;;;;;6.57;5.10;;;24.30;99.90;;;;;;6131992;23;20186;-95
2022/08/19 09:36:07;;;;;;;6.63;5.23;;;24.30;99.90;;;;;;6131025;23;20245;-94
2022/08/19 09:38:40;;;;;;;8.10;5.03;;;24.40;99.90;;;;;;6130750;23;20178;-95
2022/08/19 09:41:15;;;;;;;8.30;5.20;;;24.40;99.90;;;;;;6130541;23;20641;-94
2022/08/19 09:43:51;;;;;;;7.10;5.63;;;24.30;99.90;;;;;;6130787;23;20284;-95
2022/08/19 09:46:23;;;;;;;7.10;5.00;;;24.20;99.90;;;;;;6130424;23;20494;-95
2022/08/19 09:48:59;;;;;;;13.03;5.07;;;24.20;99.90;;;;;;6130666;23;20182;-94
2022/08/19 09:51:36;;;;;;;6.13;5.20;;;24.20;99.90;;;;;;6129620;23;20178;-94
2022/08/19 09:54:08;;;;;;;9.23;5.63;;;24.20;99.90;;;;;;6139177;23;20548;-94
2022/08/19 09:56:40;;;;;;;6.27;5.50;;;24.20;99.90;;;;;;6135288;23;20185;-94
2022/08/19 09:59:13;;;;;;;6.53;5.23;;;24.20;99.90;;;;;;6132090;23;20273;-95
2022/08/19 10:01:45;;;;;;;9.97;5.17;;;24.20;99.90;;;;;;6132000;23;20187;-95
2022/08/19 10:04:19;;;;;;;5.97;5.37;;;24.20;99.90;;;;;;6131386;23;20249;-95
2022/08/19 10:06:52;;;;;;;6.17;5.40;;;24.20;99.90;;;;;;6131464;23;20181;-95
2022/08/19 10:09:28;;;;;;;9.80;5.93;;;24.20;99.90;;;;;;6134955;23;20167;-94
2022/08/19 10:12:05;;;;;;;6.30;5.47;;;24.20;99.90;;;;;;6133970;23;20182;-93
2022/08/19 10:14:40;;;;;;;7.77;5.33;;;24.20;99.90;;;;;;6138068;23;20230;-94
2022/08/19 10:17:12;;;;;;;6.90;5.43;;;24.20;99.90;;;;;;6131615;23;20194;-95
2022/08/19 10:19:52;;;;;;;6.00;5.07;;;24.20;99.90;;;;;;6131094;23;20178;-94
2022/08/19 10:22:25;;;;;;;8.30;6.00;;;24.10;99.90;;;;;;6132455;23;20201;-95
2022/08/19 10:25:01;;;;;;;11.43;5.80;;;24.10;99.90;;;;;;6130848;23;20185;-94
2022/08/19 10:27:33;;;;;;;6.47;5.03;;;24.10;99.90;;;;;;6130814;23;20178;-94
2022/08/19 10:30:06;;;;;;;12.33;6.17;;;24.00;99.90;;;;;;6130318;23;20178;-95
2022/08/19 10:32:39;;;;;;;6.53;5.40;;;24.00;99.90;;;;;;6130433;23;20194;-94
2022/08/19 10:35:18;;;;;;;12.63;5.57;;;24.00;99.90;;;;;;6130663;23;20185;-95
2022/08/19 10:37:52;;;;;;;8.97;5.23;;;23.90;99.90;;;;;;6130612;23;20182;-94
2022/08/19 10:40:29;;;;;;;9.23;5.67;;;23.80;99.90;;;;;;6131123;23;20186;-95
2022/08/19 10:43:01;;;;;;;8.43;5.40;;;23.80;99.90;;;;;;6130574;23;20673;-95
2022/08/19 10:45:32;;;;;;;7.80;5.47;;;23.70;99.90;;;;;;6130687;23;20198;-95
2022/08/19 10:48:05;;;;;;;6.53;5.07;;;23.70;99.90;;;;;;6130851;23;20174;-94
2022/08/19 10:53:31;;;;;;;9.07;5.13;;;23.70;99.90;;;;;;6130479;23;20237;-95
2022/08/19 10:58:52;;;;;;;6.43;4.73;;;23.60;99.90;;;;;;6131308;23;20602;-94
2022/08/19 11:01:23;;;;;;;11.03;5.70;;;23.60;99.90;;;;;;6131623;23;20189;-95
2022/08/19 11:03:57;;;;;;;9.00;4.60;;;23.60;99.90;;;;;;6132157;23;20206;-94
2022/08/19 11:06:31;;;;;;;7.77;4.37;;;23.50;99.90;;;;;;6131963;23;20174;-94
2022/08/19 11:09:02;;;;;;;7.70;4.43;;;23.50;99.90;;;;;;6132025;23;20644;-95
2022/08/19 11:11:40;;;;;;;7.07;4.47;;;23.50;99.90;;;;;;6131955;23;20330;-94
2022/08/19 11:14:13;;;;;;;8.40;4.40;;;23.50;99.90;;;;;;6132387;23;20552;-95
2022/08/19 11:16:45;;;;;;;8.50;4.03;;;23.40;99.90;;;;;;6132714;23;20178;-94
2022/08/19 11:19:18;;;;;;;5.40;4.50;;;23.40;99.90;;;;;;6137343;23;20182;-94
2022/08/19 11:21:54;;;;;;;7.57;4.60;;;23.40;99.90;;;;;;6143843;23;20186;-95
2022/08/19 11:24:30;;;;;;;5.77;4.00;;;23.40;99.90;;;;;;6150786;23;20189;-94
2022/08/19 11:27:06;;;;;;;8.77;3.97;;;23.30;99.90;;;;;;6150509;23;20197;-93
2022/08/19 11:29:38;;;;;;;6.00;4.13;;;23.30;99.90;;;;;;6150956;23;20241;-95
2022/08/19 11:32:12;;;;;;;7.13;4.07;;;23.30;99.90;;;;;;6149933;23;20178;-93
2022/08/19 11:34:44;;;;;;;8.33;4.30;;;23.20;99.90;;;;;;6150716;23;20178;-95
2022/08/19 11:37:18;;;;;;;7.17;4.00;;;23.20;99.90;;;;;;6150403;23;20190;-95
2022/08/19 11:39:49;;;;;;;5.03;4.10;;;23.20;99.90;;;;;;6151475;23;20166;-94
2022/08/19 11:45:25;;;;;;;6.00;4.27;;;23.10;99.90;;;;;;6148426;23;20166;-95
2022/08/19 11:47:58;;;;;;;6.80;4.50;;;23.10;99.90;;;;;;6138775;23;20605;-95
2022/08/19 11:50:30;;;;;;;4.60;4.00;;;23.10;99.90;;;;;;6118170;23;20178;-94
2022/08/19 11:53:05;;;;;;;8.10;3.83;;;23.10;99.90;;;;;;6132562;23;20240;-94
2022/08/19 11:55:42;;;;;;;7.47;4.40;;;23.00;99.90;;;;;;6135981;23;20205;-94
2022/08/19 11:58:14;;;;;;;6.07;4.33;;;23.00;99.90;;;;;;6136758;23;20189;-92
2022/08/19 12:00:48;;;;;;;6.17;4.40;;;22.90;99.90;;;;;;6140987;23;20233;-92
2022/08/19 12:03:21;;;;;;;5.57;4.47;;;22.90;99.90;;;;;;6139272;23;20202;-94
2022/08/19 12:05:52;;;;;;;7.83;4.20;;;22.80;99.90;;;;;;6134891;23;20214;-94
2022/08/19 12:08:25;;;;;;;5.63;4.30;;;22.80;99.90;;;;;;6134743;23;20179;-94
2022/08/19 12:11:00;;;;;;;7.10;4.83;;;22.90;99.90;;;;;;6144370;23;20178;-95
2022/08/19 12:13:32;;;;;;;15.13;5.53;;;22.80;99.90;;;;;;6136667;23;20185;-95
2022/08/19 12:16:12;;;;;;;10.03;5.10;;;22.80;99.90;;;;;;6136359;23;20218;-93
2022/08/19 12:18:43;;;;;;;8.83;4.73;;;22.80;99.90;;;;;;6141260;23;20178;-93
2022/08/19 12:21:15;;;;;;;5.10;4.33;;;22.80;99.90;;;;;;6138814;23;20248;-94
2022/08/19 12:23:49;;;;;;;9.80;5.37;;;22.80;99.90;;;;;;6137162;23;20241;-95
2022/08/19 12:26:25;;;;;;;10.00;5.23;;;22.70;99.90;;;;;;6135186;23;20175;-94
2022/08/19 12:28:58;;;;;;;6.00;4.97;;;22.80;99.90;;;;;;6136609;23;20179;-94
2022/08/19 12:31:31;;;;;;;10.73;5.50;;;22.80;99.90;;;;;;6136673;23;20194;-94
2022/08/19 12:34:03;;;;;;;10.90;4.83;;;22.80;99.90;;;;;;6134567;23;20230;-95
2022/08/19 12:36:35;;;;;;;7.30;5.10;;;22.80;99.90;;;;;;6134890;23;20183;-94
2022/08/19 12:39:09;;;;;;;9.43;5.17;;;22.80;99.90;;;;;;6137639;23;20598;-94
2022/08/19 12:41:43;;;;;;;5.90;4.80;;;22.80;99.90;;;;;;6142742;23;20188;-93
2022/08/19 12:44:25;;;;;;;9.70;5.00;;;22.80;99.90;;;;;;6149553;23;20211;-94
2022/08/19 12:47:02;;;;;;;10.90;5.00;;;22.80;99.90;;;;;;6142166;23;20263;-94
2022/08/19 12:49:36;;;;;;;7.97;5.03;;;22.70;99.90;;;;;;6140850;23;20182;-95
2022/08/19 12:52:25;;;;;;;7.03;4.70;;;22.80;99.90;;;;;;6150439;23;20182;-94
2022/08/19 12:55:00;;;;;;;8.13;4.90;;;22.70;99.90;;;;;;6152070;23;20166;-95
2022/08/19 12:57:32;;;;;;;5.20;3.87;;;22.70;99.90;;;;;;6153455;23;20158;-95
2022/08/19 13:00:10;;;;;;;7.40;3.73;;;22.70;99.90;;;;;;6150954;23;20261;-94
2022/08/19 13:02:43;;;;;;;7.17;3.80;;;22.70;99.90;;;;;;6134914;23;20179;-94
2022/08/19 13:05:19;;;;;;;8.47;3.60;;;22.60;99.90;;;;;;6134213;23;20194;-94
2022/08/19 13:07:52;;;;;;;6.50;3.17;;;22.50;99.90;;;;;;6132933;23;20174;-94
2022/08/19 13:10:31;;;;;;;10.30;3.77;;;22.30;99.90;;;;;;6134053;23;20182;-94
2022/08/19 13:13:05;;;;;;;6.57;3.73;;;22.20;99.90;;;;;;6133336;23;20229;-94
2022/08/19 13:15:39;;;;;;;7.87;3.37;;;22.20;99.90;;;;;;6132864;23;20178;-95
2022/08/19 13:18:12;;;;;;;8.07;3.53;;;22.20;99.90;;;;;;6132444;23;20179;-94
2022/08/19 13:20:47;;;;;;;8.13;3.23;;;22.00;99.90;;;;;;6136719;23;20194;-94
2022/08/19 13:23:22;;;;;;;10.37;3.53;;;21.90;99.90;;;;;;6132143;23;20178;-95
2022/08/19 13:26:03;;;;;;;5.27;3.07;;;21.90;99.90;;;;;;6133007;23;20194;-94
2022/08/19 13:34:08;;;;;;;9.20;3.30;;;21.70;99.90;;;;;;6131938;23;20226;-94
2022/08/19 13:36:40;;;;;;;9.93;3.30;;;21.60;99.90;;;;;;6132274;23;20516;-95
2022/08/19 13:39:13;;;;;;;5.93;3.17;;;21.50;99.90;;;;;;6131657;23;20182;-94
2022/08/19 13:41:49;;;;;;;5.13;2.87;;;21.40;99.90;;;;;;6130950;23;20179;-94
2022/08/19 13:44:21;;;;;;;6.33;3.20;;;21.40;99.90;;;;;;6131850;23;20554;-95
2022/08/19 13:46:53;;;;;;;8.67;3.00;;;21.40;99.90;;;;;;6131466;23;20639;-95
2022/08/19 13:49:25;;;;;;;5.87;3.30;;;21.30;99.90;;;;;;6131132;23;20180;-94
2022/08/19 13:51:56;;;;;;;8.03;3.30;;;21.20;99.90;;;;;;6131071;23;20179;-95
2022/08/19 13:54:27;;;;;;;6.10;2.90;;;21.00;99.90;;;;;;6131496;23;20450;-94
2022/08/19 13:57:01;;;;;;;4.87;2.80;;;20.90;99.90;;;;;;6130906;23;20621;-94
2022/08/19 13:59:34;;;;;;;10.63;3.57;;;20.90;99.90;;;;;;6130908;23;20182;-94
2022/08/19 14:02:05;;;;;;;7.23;3.40;;;20.90;99.90;;;;;;6130295;23;20235;-94
2022/08/19 14:04:37;;;;;;;9.43;2.87;;;20.90;99.90;;;;;;6130328;23;20475;-94
2022/08/19 14:07:09;;;;;;;5.97;2.77;;;20.80;99.90;;;;;;6132066;23;20229;-95
2022/08/19 14:09:40;;;;;;;9.67;2.90;;;20.80;99.90;;;;;;6130903;23;20564;-94
2022/08/19 14:12:20;;;;;;;8.73;3.07;;;20.50;99.90;;;;;;6130511;23;20236;-94
2022/08/19 14:14:58;;;;;;;6.30;3.03;;;20.20;99.90;;;;;;6130421;23;20178;-93
2022/08/19 14:17:29;;;;;;;6.50;3.40;;;20.00;99.90;;;;;;6130688;23;20237;-93
2022/08/19 14:20:07;;;;;;;5.90;2.90;;;20.00;99.90;;;;;;6130958;23;20171;-94
2022/08/19 14:22:42;;;;;;;8.53;3.50;;;19.90;99.90;;;;;;6132080;23;20198;-94
2022/08/19 14:25:16;;;;;;;6.13;2.80;;;19.90;99.90;;;;;;6136116;23;20202;-93
2022/08/19 14:27:52;;;;;;;6.60;3.20;;;19.90;99.90;;;;;;6136903;23;20182;-94
2022/08/19 14:30:28;;;;;;;4.20;2.73;;;19.90;99.90;;;;;;6130976;23;20256;-94
2022/08/19 14:33:01;;;;;;;4.43;2.87;;;19.90;99.90;;;;;;6129706;23;20186;-94
2022/08/19 14:35:34;;;;;;;3.87;2.77;;;19.80;99.90;;;;;;6130523;23;20175;-94
2022/08/19 14:38:06;;;;;;;5.80;2.90;;;19.80;99.90;;;;;;6130376;23;20552;-93
2022/08/19 14:40:37;;;;;;;3.63;2.67;;;19.70;99.90;;;;;;6131012;23;20222;-93
2022/08/19 14:43:10;;;;;;;5.43;2.67;;;19.80;99.90;;;;;;6129599;23;20586;-94
2022/08/19 14:45:42;;;;;;;4.53;2.80;;;19.80;99.90;;;;;;6130315;23;20201;-94